Time;durP1;ratioP1;P1;durP2;ratioP2;P2;SDS_P1;SDS_P2;PMS_P1;PMS_P2;Temp;Humidity;BMP_temperature;BMP_pressure;BME280_temperature;BME280_humidity;BME280_pressure;Samples;Min_cycle;Max_cycle;Signal;HPM_P1;HPM_P2
2022/09/30 00:02:20;;;;;;;1999.90;999.90;;;6.40;99.90;;;;;;5091657;28;20492;-67
2022/09/30 00:04:48;;;;;;;1999.90;999.90;;;6.30;99.90;;;;;;5091159;28;20480;-67
2022/09/30 00:07:15;;;;;;;1999.90;999.90;;;6.20;99.90;;;;;;5091548;28;20831;-66
2022/09/30 00:09:42;;;;;;;1999.90;999.90;;;6.30;99.90;;;;;;5092081;28;20457;-67
2022/09/30 00:12:09;;;;;;;1999.90;999.90;;;6.20;99.90;;;;;;5089322;28;20460;-66
2022/09/30 00:14:36;;;;;;;1999.90;999.90;;;6.30;99.90;;;;;;5088981;28;20481;-67
2022/09/30 00:17:03;;;;;;;1999.90;999.90;;;6.30;99.90;;;;;;5089695;28;21019;-67
2022/09/30 00:19:29;;;;;;;1999.90;999.90;;;6.40;99.90;;;;;;5088100;28;20468;-66
2022/09/30 00:21:58;;;;;;;1999.90;999.90;;;6.30;99.90;;;;;;5089191;28;20500;-66
2022/09/30 00:24:24;;;;;;;1999.90;999.90;;;6.30;99.90;;;;;;5088612;28;20473;-65
2022/09/30 00:26:51;;;;;;;1999.90;999.90;;;5.90;99.90;;;;;;5085479;28;20464;-67
2022/09/30 00:29:18;;;;;;;1999.90;999.90;;;6.20;99.90;;;;;;5091180;28;20863;-66
2022/09/30 00:31:44;;;;;;;1999.90;999.90;;;6.10;99.90;;;;;;5091790;28;20456;-67
2022/09/30 00:34:11;;;;;;;1999.90;999.90;;;6.20;99.90;;;;;;5090053;28;20553;-66
2022/09/30 00:36:43;;;;;;;1999.90;999.90;;;6.20;99.90;;;;;;5089174;28;20971;-67
2022/09/30 00:39:13;;;;;;;1999.90;999.90;;;6.20;99.90;;;;;;5091303;28;20514;-66
2022/09/30 00:41:40;;;;;;;1999.90;999.90;;;6.10;99.90;;;;;;5090477;28;20464;-67
2022/09/30 00:44:45;;;;;;;1999.90;999.90;;;6.00;99.90;;;;;;5091126;28;20485;-67
2022/09/30 00:47:30;;;;;;;1999.90;999.90;;;6.00;99.90;;;;;;5089142;28;20467;-66
2022/09/30 00:50:01;;;;;;;1999.90;999.90;;;6.10;99.90;;;;;;5088016;28;20467;-67
2022/09/30 00:52:28;;;;;;;1999.90;999.90;;;6.20;99.90;;;;;;5089268;28;20475;-67
2022/09/30 00:55:01;;;;;;;1999.90;999.90;;;6.20;99.90;;;;;;5090397;28;20886;-67
2022/09/30 00:57:29;;;;;;;1999.90;999.90;;;6.20;99.90;;;;;;5093058;28;20457;-66
2022/09/30 00:59:55;;;;;;;1999.90;999.90;;;6.20;99.90;;;;;;5095907;28;20468;-67
2022/09/30 01:02:23;;;;;;;1999.90;999.90;;;6.30;99.90;;;;;;5089317;28;20994;-67
2022/09/30 01:04:49;;;;;;;1999.90;999.90;;;6.30;99.90;;;;;;5090533;28;20477;-67
2022/09/30 01:07:16;;;;;;;1999.90;999.90;;;6.20;99.90;;;;;;5090198;28;21066;-66
2022/09/30 01:09:44;;;;;;;1999.90;999.90;;;6.20;99.90;;;;;;5089014;28;20848;-67
2022/09/30 01:12:16;;;;;;;1999.90;999.90;;;6.20;99.90;;;;;;5087515;28;20456;-67
2022/09/30 01:14:45;;;;;;;1999.90;999.90;;;6.20;99.90;;;;;;5089661;28;20483;-67
2022/09/30 01:17:20;;;;;;;1999.90;999.90;;;6.30;99.90;;;;;;5090639;28;20461;-65
2022/09/30 01:20:28;;;;;;;1999.90;999.90;;;6.30;99.90;;;;;;5090800;28;20464;-67
2022/09/30 01:23:08;;;;;;;1999.90;999.90;;;6.40;99.90;;;;;;5066159;28;20472;-66
2022/09/30 01:26:03;;;;;;;1999.90;999.90;;;6.40;99.90;;;;;;5089315;28;20461;-65
2022/09/30 01:29:10;;;;;;;1999.90;999.90;;;6.60;99.90;;;;;;5088086;28;20465;-67
2022/09/30 01:31:48;;;;;;;1999.90;999.90;;;6.50;99.90;;;;;;5089532;28;20452;-67
2022/09/30 01:34:25;;;;;;;1999.90;999.90;;;6.40;99.90;;;;;;5089861;28;20477;-65
2022/09/30 01:37:08;;;;;;;1999.90;999.90;;;6.30;99.90;;;;;;5090487;28;20832;-67
2022/09/30 01:39:46;;;;;;;1999.90;999.90;;;6.40;99.90;;;;;;5089288;28;20471;-67
2022/09/30 01:42:19;;;;;;;1999.90;999.90;;;6.30;99.90;;;;;;5089331;28;20525;-66
2022/09/30 01:44:54;;;;;;;1999.90;999.90;;;6.30;99.90;;;;;;5088863;28;20494;-67
2022/09/30 01:47:25;;;;;;;1999.90;999.90;;;6.40;99.90;;;;;;5089408;28;20455;-66
2022/09/30 01:49:57;;;;;;;1999.90;999.90;;;6.00;99.90;;;;;;5089655;28;20467;-67
2022/09/30 01:52:28;;;;;;;1999.90;999.90;;;5.90;99.90;;;;;;5089345;28;20960;-66
2022/09/30 01:55:03;;;;;;;1999.90;999.90;;;5.80;99.90;;;;;;5089423;28;20487;-67
2022/09/30 01:57:33;;;;;;;1999.90;999.90;;;5.70;99.90;;;;;;5087613;28;20459;-66
2022/09/30 02:00:05;;;;;;;1999.90;999.90;;;5.60;99.90;;;;;;5089915;28;20831;-66
2022/09/30 02:02:36;;;;;;;1999.90;999.90;;;5.60;99.90;;;;;;5088715;28;20517;-67
2022/09/30 02:05:08;;;;;;;1999.90;999.90;;;5.70;99.90;;;;;;5089833;28;20502;-67
2022/09/30 02:07:39;;;;;;;1999.90;999.90;;;5.80;99.90;;;;;;5089306;28;20547;-67
2022/09/30 02:10:12;;;;;;;1999.90;999.90;;;5.80;99.90;;;;;;5089925;28;20460;-67
2022/09/30 02:12:46;;;;;;;1999.90;999.90;;;5.90;99.90;;;;;;5088144;28;20474;-67
2022/09/30 02:15:17;;;;;;;1999.90;999.90;;;5.90;99.90;;;;;;5089306;28;20479;-67
2022/09/30 02:17:50;;;;;;;1999.90;999.90;;;5.90;99.90;;;;;;5089597;28;20464;-67
2022/09/30 02:20:22;;;;;;;1999.90;999.90;;;5.70;99.90;;;;;;5089435;28;20474;-65
2022/09/30 02:22:52;;;;;;;1999.90;999.90;;;5.70;99.90;;;;;;5088384;28;20979;-67
2022/09/30 02:25:22;;;;;;;1999.90;999.90;;;5.80;99.90;;;;;;5088068;28;20485;-65
2022/09/30 02:27:54;;;;;;;1999.90;999.90;;;5.70;99.90;;;;;;5089218;28;20453;-67
2022/09/30 02:30:20;;;;;;;1999.90;999.90;;;5.60;99.90;;;;;;5089124;28;20468;-65
2022/09/30 02:32:52;;;;;;;1999.90;999.90;;;5.60;99.90;;;;;;5088387;28;20822;-67
2022/09/30 02:35:23;;;;;;;1999.90;999.90;;;5.50;99.90;;;;;;5088261;28;20492;-67
2022/09/30 02:37:54;;;;;;;1999.90;999.90;;;5.50;99.90;;;;;;5088185;28;20483;-66
2022/09/30 02:40:26;;;;;;;1999.90;999.90;;;5.50;99.90;;;;;;5087724;28;20464;-66
2022/09/30 02:42:53;;;;;;;1999.90;999.90;;;5.70;99.90;;;;;;5088983;28;20456;-66
2022/09/30 02:45:23;;;;;;;1999.90;999.90;;;5.60;99.90;;;;;;5088203;28;20488;-66
2022/09/30 02:48:04;;;;;;;1999.90;999.90;;;5.60;99.90;;;;;;5089226;28;20461;-66
2022/09/30 02:50:35;;;;;;;1999.90;999.90;;;5.70;99.90;;;;;;5087470;28;20456;-67
2022/09/30 02:53:15;;;;;;;1999.90;999.90;;;5.70;99.90;;;;;;5086131;28;20973;-67
2022/09/30 02:55:55;;;;;;;1999.90;999.90;;;5.70;99.90;;;;;;5087430;28;20456;-67
2022/09/30 02:58:25;;;;;;;1999.90;999.90;;;5.60;99.90;;;;;;5089162;28;20460;-66
2022/09/30 03:00:53;;;;;;;1999.90;999.90;;;5.60;99.90;;;;;;5092064;28;20451;-67
2022/09/30 03:03:26;;;;;;;1999.90;999.90;;;5.50;99.90;;;;;;5093234;28;20488;-65
2022/09/30 03:05:53;;;;;;;1999.90;999.90;;;5.40;99.90;;;;;;5092758;28;20460;-66
2022/09/30 03:08:19;;;;;;;1999.90;999.90;;;5.40;99.90;;;;;;5092456;28;20515;-65
2022/09/30 03:10:50;;;;;;;1999.90;999.90;;;5.40;99.90;;;;;;5092538;28;20452;-67
2022/09/30 03:13:41;;;;;;;1999.90;999.90;;;5.40;99.90;;;;;;5093598;28;20461;-67
2022/09/30 03:16:19;;;;;;;1999.90;999.90;;;5.40;99.90;;;;;;5089987;28;20468;-66
2022/09/30 03:19:10;;;;;;;1999.90;999.90;;;5.30;99.90;;;;;;5093139;28;20460;-66
2022/09/30 03:21:59;;;;;;;1999.90;999.90;;;5.30;99.90;;;;;;5091669;28;20460;-66
2022/09/30 03:24:53;;;;;;;1999.90;999.90;;;5.40;99.90;;;;;;5088487;28;20490;-65
2022/09/30 03:27:31;;;;;;;1999.90;999.90;;;5.30;99.90;;;;;;5090075;28;20460;-65
2022/09/30 03:30:04;;;;;;;1999.90;999.90;;;5.40;99.90;;;;;;5105430;28;20452;-67
2022/09/30 03:32:56;;;;;;;1999.90;999.90;;;5.40;99.90;;;;;;5090325;28;20805;-67
2022/09/30 03:35:32;;;;;;;1999.90;999.90;;;5.40;99.90;;;;;;5091297;28;20480;-66
2022/09/30 03:38:04;;;;;;;1999.90;999.90;;;5.40;99.90;;;;;;5092048;28;20978;-67
2022/09/30 03:40:41;;;;;;;1999.90;999.90;;;5.40;99.90;;;;;;5090071;28;20975;-67
2022/09/30 03:43:17;;;;;;;1999.90;999.90;;;5.50;99.90;;;;;;5092519;28;20980;-65
2022/09/30 03:45:50;;;;;;;1999.90;999.90;;;5.50;99.90;;;;;;5091490;28;20468;-67
2022/09/30 03:48:19;;;;;;;1999.90;999.90;;;5.50;99.90;;;;;;5092568;28;20839;-67
2022/09/30 03:50:48;;;;;;;1999.90;999.90;;;5.50;99.90;;;;;;5092338;28;20452;-67
2022/09/30 03:53:15;;;;;;;1999.90;999.90;;;5.50;99.90;;;;;;5091759;28;20472;-66
2022/09/30 03:55:49;;;;;;;1999.90;999.90;;;5.50;99.90;;;;;;5090446;28;20467;-67
2022/09/30 03:58:16;;;;;;;1999.90;999.90;;;5.60;99.90;;;;;;5091759;28;20467;-67
2022/09/30 04:00:48;;;;;;;1999.90;999.90;;;5.60;99.90;;;;;;5090038;28;20461;-66
2022/09/30 04:03:15;;;;;;;1999.90;999.90;;;5.40;99.90;;;;;;5089722;28;20456;-67
2022/09/30 04:05:42;;;;;;;1999.90;999.90;;;5.40;99.90;;;;;;5089078;28;20473;-67
2022/09/30 04:08:10;;;;;;;1999.90;999.90;;;5.40;99.90;;;;;;5090384;28;20471;-66
2022/09/30 04:10:39;;;;;;;1999.90;999.90;;;5.30;99.90;;;;;;5090693;28;20464;-66
2022/09/30 04:13:06;;;;;;;1999.90;999.90;;;5.20;99.90;;;;;;5089630;28;20449;-66
2022/09/30 04:15:33;;;;;;;1999.90;999.90;;;5.20;99.90;;;;;;5091363;28;20827;-67
2022/09/30 04:18:00;;;;;;;1999.90;999.90;;;5.20;99.90;;;;;;5091469;28;20971;-66
2022/09/30 04:20:26;;;;;;;1999.90;999.90;;;5.20;99.90;;;;;;5090255;28;20956;-65
2022/09/30 04:22:53;;;;;;;1999.90;999.90;;;5.20;99.90;;;;;;5090160;28;20467;-65
2022/09/30 04:25:21;;;;;;;1999.90;999.90;;;5.20;99.90;;;;;;5092415;28;20495;-66
2022/09/30 04:27:48;;;;;;;1999.90;999.90;;;5.20;99.90;;;;;;5091703;28;20468;-66
2022/09/30 04:30:15;;;;;;;1999.90;999.90;;;5.20;99.90;;;;;;5092204;28;20467;-66
2022/09/30 04:32:44;;;;;;;1999.90;999.90;;;5.10;99.90;;;;;;5090192;28;20531;-66
2022/09/30 04:35:11;;;;;;;1999.90;999.90;;;5.10;99.90;;;;;;5088499;28;20484;-67
2022/09/30 04:37:41;;;;;;;1999.90;999.90;;;5.10;99.90;;;;;;5090451;28;20547;-66
2022/09/30 04:40:09;;;;;;;1999.90;999.90;;;5.10;99.90;;;;;;5088934;28;20464;-67
2022/09/30 04:42:38;;;;;;;1999.90;999.90;;;5.10;99.90;;;;;;5090732;28;20456;-66
2022/09/30 04:45:05;;;;;;;1999.90;999.90;;;5.20;99.90;;;;;;5090245;28;20987;-66
2022/09/30 04:47:32;;;;;;;1999.90;999.90;;;5.10;99.90;;;;;;5091351;28;20842;-66
2022/09/30 04:49:58;;;;;;;1999.90;999.90;;;5.20;99.90;;;;;;5092880;28;20460;-66
2022/09/30 04:52:25;;;;;;;1999.90;999.90;;;5.20;99.90;;;;;;5098425;28;20461;-66
2022/09/30 04:54:52;;;;;;;1999.90;999.90;;;5.20;99.90;;;;;;5100353;28;20473;-66
2022/09/30 04:57:19;;;;;;;1999.90;999.90;;;5.20;99.90;;;;;;5102076;28;20460;-67
2022/09/30 04:59:49;;;;;;;1999.90;999.90;;;5.20;99.90;;;;;;5101712;28;20456;-67
2022/09/30 05:02:16;;;;;;;1999.90;999.90;;;5.10;99.90;;;;;;5094336;28;20555;-66
2022/09/30 05:04:43;;;;;;;1999.90;999.90;;;5.10;99.90;;;;;;5089227;28;20488;-67
2022/09/30 05:07:09;;;;;;;1999.90;999.90;;;5.00;99.90;;;;;;5091154;28;20471;-67
2022/09/30 05:09:36;;;;;;;1999.90;999.90;;;5.10;99.90;;;;;;5090486;28;20456;-67
2022/09/30 05:12:03;;;;;;;1999.90;999.90;;;5.20;99.90;;;;;;5090495;28;20996;-66
2022/09/30 05:14:32;;;;;;;1999.90;999.90;;;5.20;99.90;;;;;;5089860;28;20476;-65
2022/09/30 05:17:00;;;;;;;1999.90;999.90;;;5.30;99.90;;;;;;5090332;28;20529;-67
2022/09/30 05:19:27;;;;;;;1999.90;999.90;;;5.30;99.90;;;;;;5088489;28;20522;-65
2022/09/30 05:21:54;;;;;;;1999.90;999.90;;;5.30;99.90;;;;;;5088379;28;20487;-64
2022/09/30 05:24:21;;;;;;;1999.90;999.90;;;5.30;99.90;;;;;;5090165;28;20480;-65
2022/09/30 05:26:48;;;;;;;1999.90;999.90;;;5.70;99.90;;;;;;5089546;28;20468;-66
2022/09/30 05:29:15;;;;;;;1999.90;999.90;;;5.30;99.90;;;;;;5089846;28;20461;-66
2022/09/30 05:31:42;;;;;;;1999.90;999.90;;;5.30;99.90;;;;;;5085652;28;20464;-66
2022/09/30 05:34:10;;;;;;;1999.90;999.90;;;5.30;99.90;;;;;;5085369;28;20488;-66
2022/09/30 05:36:37;;;;;;;1999.90;999.90;;;5.30;99.90;;;;;;5088242;28;20459;-66
2022/09/30 05:39:04;;;;;;;1999.90;999.90;;;5.40;99.90;;;;;;5142906;22;20491;-72
2022/09/30 05:41:31;;;;;;;1999.90;999.90;;;5.40;99.90;;;;;;5092844;28;20460;-70
2022/09/30 05:44:00;;;;;;;1999.90;999.90;;;5.50;99.90;;;;;;5093926;28;20494;-73
2022/09/30 05:46:27;;;;;;;1999.90;999.90;;;5.60;99.90;;;;;;5091331;28;20455;-72
2022/09/30 05:48:54;;;;;;;1999.90;999.90;;;5.60;99.90;;;;;;5088111;28;20558;-73
2022/09/30 05:51:22;;;;;;;1999.90;999.90;;;5.70;99.90;;;;;;5076545;28;20465;-72
2022/09/30 05:53:50;;;;;;;1999.90;999.90;;;5.70;99.90;;;;;;5075346;28;20539;-73
2022/09/30 05:56:17;;;;;;;1999.90;999.90;;;5.80;99.90;;;;;;5072165;28;20552;-73
2022/09/30 05:58:46;;;;;;;1999.90;999.90;;;5.90;99.90;;;;;;5074475;28;20489;-73
2022/09/30 06:01:15;;;;;;;1999.90;999.90;;;6.30;99.90;;;;;;5072991;28;20457;-73
2022/09/30 06:03:42;;;;;;;1999.90;999.90;;;6.00;99.90;;;;;;5071715;28;20441;-74
2022/09/30 06:06:09;;;;;;;1999.90;999.90;;;5.90;99.90;;;;;;5072527;28;20488;-73
2022/09/30 06:08:37;;;;;;;1999.90;999.90;;;6.00;99.90;;;;;;5068844;28;20481;-74
2022/09/30 06:11:10;;;;;;;1999.90;999.90;;;6.00;99.90;;;;;;5075008;28;20472;-73
2022/09/30 06:13:37;;;;;;;1999.90;999.90;;;6.10;99.90;;;;;;5073002;28;20548;-74
2022/09/30 06:16:05;;;;;;;1999.90;999.90;;;6.30;99.90;;;;;;5072968;28;20961;-74
2022/09/30 06:18:31;;;;;;;1999.90;999.90;;;6.40;99.90;;;;;;5072843;28;20492;-72
2022/09/30 06:20:59;;;;;;;1999.90;999.90;;;6.50;99.90;;;;;;5069430;28;20931;-74
2022/09/30 06:23:26;;;;;;;1999.90;999.90;;;6.70;99.90;;;;;;5068730;28;20466;-72
2022/09/30 06:25:55;;;;;;;1999.90;999.90;;;6.80;99.90;;;;;;5074148;28;20869;-73
2022/09/30 06:28:23;;;;;;;1999.90;999.90;;;7.00;99.90;;;;;;5073877;28;20538;-72
2022/09/30 06:30:50;;;;;;;1999.90;999.90;;;7.20;99.90;;;;;;5074079;28;20821;-73
2022/09/30 06:33:17;;;;;;;1999.90;999.90;;;7.40;99.90;;;;;;5073735;28;20965;-72
2022/09/30 06:35:46;;;;;;;1999.90;999.90;;;7.50;99.90;;;;;;5076031;28;20551;-73
2022/09/30 06:38:14;;;;;;;1999.90;999.90;;;7.70;99.90;;;;;;5079489;28;21085;-73
2022/09/30 06:40:41;;;;;;;1999.90;999.90;;;7.90;99.90;;;;;;5078162;28;20500;-72
2022/09/30 06:43:10;;;;;;;1999.90;999.90;;;8.10;99.90;;;;;;5081142;28;20472;-74
2022/09/30 06:45:37;;;;;;;1999.90;999.90;;;8.20;99.90;;;;;;5075355;28;20473;-71
2022/09/30 06:48:06;;;;;;;1999.90;999.90;;;8.50;99.90;;;;;;5075718;28;20991;-72
2022/09/30 06:50:33;;;;;;;1999.90;999.90;;;8.30;99.90;;;;;;5077865;28;20496;-72
2022/09/30 06:53:01;;;;;;;1999.90;999.90;;;8.80;99.90;;;;;;5077572;28;20456;-73
2022/09/30 06:55:28;;;;;;;1999.90;999.90;;;8.80;99.90;;;;;;5077071;28;20453;-71
2022/09/30 06:57:56;;;;;;;1999.90;999.90;;;8.80;99.90;;;;;;5077422;28;20461;-71
2022/09/30 07:00:25;;;;;;;1999.90;999.90;;;9.00;99.90;;;;;;5076125;28;20492;-73
2022/09/30 07:02:55;;;;;;;1999.90;999.90;;;9.20;99.90;;;;;;5079942;28;20908;-72
2022/09/30 07:05:22;;;;;;;1999.90;999.90;;;9.20;99.90;;;;;;5074966;28;21030;-71
2022/09/30 07:07:49;;;;;;;1999.90;999.90;;;9.40;99.90;;;;;;5069969;28;20560;-74
2022/09/30 07:10:16;;;;;;;1999.90;999.90;;;9.80;99.90;;;;;;5070670;28;20492;-75
2022/09/30 07:12:42;;;;;;;1999.90;999.90;;;10.10;99.90;;;;;;5069139;28;20981;-74
2022/09/30 07:15:10;;;;;;;1999.90;999.90;;;10.40;99.90;;;;;;5073333;28;20466;-74
2022/09/30 07:17:38;;;;;;;1999.90;999.90;;;10.70;99.90;;;;;;5067482;28;20966;-75
2022/09/30 07:20:07;;;;;;;1999.90;999.90;;;11.00;99.90;;;;;;5076267;28;20484;-74
2022/09/30 07:22:33;;;;;;;1999.90;999.90;;;11.30;99.90;;;;;;5071433;28;20491;-73
2022/09/30 07:25:02;;;;;;;1999.90;999.90;;;11.60;99.90;;;;;;5076166;28;20507;-72
2022/09/30 07:27:32;;;;;;;1999.90;999.90;;;11.80;99.90;;;;;;5074978;28;20433;-75
2022/09/30 07:30:01;;;;;;;1999.90;999.90;;;11.90;99.90;;;;;;5074900;28;20540;-75
2022/09/30 07:32:28;;;;;;;1999.90;999.90;;;12.10;99.90;;;;;;5074817;28;20442;-74
2022/09/30 07:34:56;;;;;;;1999.90;999.90;;;12.40;99.90;;;;;;5065815;28;20442;-71
2022/09/30 07:37:25;;;;;;;1999.90;999.90;;;12.20;99.90;;;;;;5067685;28;20466;-75
2022/09/30 07:39:52;;;;;;;1999.90;999.90;;;12.00;99.90;;;;;;5075692;28;20480;-75
2022/09/30 07:42:20;;;;;;;1999.90;999.90;;;12.40;99.90;;;;;;5073351;28;20457;-75
2022/09/30 07:44:47;;;;;;;1999.90;999.90;;;12.70;99.90;;;;;;5076353;28;20533;-76
2022/09/30 07:47:15;;;;;;;1999.90;999.90;;;13.00;99.90;;;;;;5074918;28;20449;-75
2022/09/30 07:49:43;;;;;;;1999.90;999.90;;;13.40;99.90;;;;;;5066833;28;20487;-76
2022/09/30 07:52:12;;;;;;;1999.90;999.90;;;13.40;99.90;;;;;;5077602;28;20448;-75
2022/09/30 07:54:40;;;;;;;1999.90;999.90;;;13.30;99.90;;;;;;5072290;28;20801;-74
2022/09/30 07:57:07;;;;;;;1999.90;999.90;;;13.60;99.90;;;;;;5070366;28;20470;-74
2022/09/30 07:59:37;;;;;;;1999.90;999.90;;;13.80;99.90;;;;;;5075073;28;20956;-76
2022/09/30 08:02:04;;;;;;;1999.90;999.90;;;14.10;99.90;;;;;;5077428;28;20997;-76
2022/09/30 08:04:31;;;;;;;1999.90;999.90;;;14.30;99.90;;;;;;5073852;28;20453;-76
2022/09/30 08:06:59;;;;;;;1999.90;999.90;;;14.40;99.90;;;;;;5074571;28;20460;-75
2022/09/30 08:09:30;;;;;;;1999.90;999.90;;;14.50;99.90;;;;;;5074723;28;20698;-73
2022/09/30 08:11:57;;;;;;;1999.90;999.90;;;14.40;99.90;;;;;;5080086;28;20455;-73
2022/09/30 08:14:25;;;;;;;1999.90;999.90;;;14.30;99.90;;;;;;5075844;28;20976;-74
2022/09/30 08:16:52;;;;;;;1999.90;999.90;;;14.20;99.90;;;;;;5072652;28;20453;-73
2022/09/30 08:19:21;;;;;;;1999.90;999.90;;;14.50;99.90;;;;;;5075002;28;20484;-72
2022/09/30 08:21:48;;;;;;;1999.90;999.90;;;14.80;99.90;;;;;;5075183;28;20469;-74
2022/09/30 08:24:15;;;;;;;1999.90;999.90;;;15.00;99.90;;;;;;5075302;28;20453;-73
2022/09/30 08:26:44;;;;;;;1999.90;999.90;;;15.00;99.90;;;;;;5073492;28;20675;-72
2022/09/30 08:29:13;;;;;;;1999.90;999.90;;;14.90;99.90;;;;;;5074006;28;20453;-73
2022/09/30 08:31:41;;;;;;;1999.90;999.90;;;15.00;99.90;;;;;;5073599;28;20544;-74
2022/09/30 08:34:08;;;;;;;1999.90;999.90;;;15.20;99.90;;;;;;5073697;28;20446;-74
2022/09/30 08:36:35;;;;;;;1999.90;999.90;;;15.10;99.90;;;;;;5073141;28;20433;-73
2022/09/30 08:39:02;;;;;;;1999.90;999.90;;;15.10;99.90;;;;;;5073563;28;20473;-73
2022/09/30 08:42:11;;;;;;;1999.90;999.90;;;15.20;99.90;;;;;;5073583;28;20440;-74
2022/09/30 08:44:43;;;;;;;1999.90;999.90;;;15.40;99.90;;;;;;5073733;28;20425;-73
2022/09/30 08:47:30;;;;;;;1999.90;999.90;;;15.30;99.90;;;;;;5072561;28;20816;-74
2022/09/30 08:50:06;;;;;;;1999.90;999.90;;;15.30;99.90;;;;;;5073359;28;20968;-73
2022/09/30 08:52:35;;;;;;;1999.90;999.90;;;15.30;99.90;;;;;;5073480;28;20409;-73
2022/09/30 08:55:02;;;;;;;1999.90;999.90;;;15.40;99.90;;;;;;5072949;28;20437;-74
2022/09/30 08:57:36;;;;;;;1999.90;999.90;;;15.50;99.90;;;;;;5071961;28;20469;-73
2022/09/30 09:00:09;;;;;;;1999.90;999.90;;;15.40;99.90;;;;;;5071793;28;21003;-76
2022/09/30 09:02:44;;;;;;;1999.90;999.90;;;15.40;99.90;;;;;;5073231;28;20503;-75
2022/09/30 09:05:17;;;;;;;1999.90;999.90;;;15.50;99.90;;;;;;5073064;28;20472;-73
2022/09/30 09:07:54;;;;;;;1999.90;999.90;;;15.60;99.90;;;;;;5075851;28;20426;-73
2022/09/30 09:10:32;;;;;;;1999.90;999.90;;;15.80;99.90;;;;;;5078293;28;20463;-73
2022/09/30 09:13:09;;;;;;;1999.90;999.90;;;15.80;99.90;;;;;;5080054;28;20462;-69
2022/09/30 09:15:56;;;;;;;1999.90;999.90;;;16.00;99.90;;;;;;5075468;28;20532;-73
2022/09/30 09:18:34;;;;;;;1999.90;999.90;;;16.10;99.90;;;;;;5070014;28;20476;-74
2022/09/30 09:21:12;;;;;;;1999.90;999.90;;;16.20;99.90;;;;;;5073917;28;20460;-71
2022/09/30 09:23:42;;;;;;;1999.90;999.90;;;16.30;99.90;;;;;;5075953;28;20441;-74
2022/09/30 09:26:11;;;;;;;1999.90;999.90;;;16.50;99.90;;;;;;5076122;28;20564;-72
2022/09/30 09:28:46;;;;;;;1999.90;999.90;;;16.70;99.90;;;;;;5073015;28;20473;-73
2022/09/30 09:31:16;;;;;;;1999.90;999.90;;;16.70;99.90;;;;;;5079141;28;20948;-74
2022/09/30 09:33:44;;;;;;;1999.90;999.90;;;17.10;99.90;;;;;;5071961;28;20944;-74
2022/09/30 09:36:26;;;;;;;1999.90;999.90;;;16.60;99.90;;;;;;5070832;28;20460;-74
2022/09/30 09:39:11;;;;;;;1999.90;999.90;;;16.20;99.90;;;;;;5071773;28;21182;-74
2022/09/30 09:41:44;;;;;;;1999.90;999.90;;;16.20;99.90;;;;;;5052585;28;20422;-74
2022/09/30 09:44:24;;;;;;;1999.90;999.90;;;16.00;99.90;;;;;;5062032;28;20512;-73
2022/09/30 09:47:00;;;;;;;1999.90;999.90;;;15.70;99.90;;;;;;5073921;28;20500;-70
2022/09/30 09:49:36;;;;;;;1999.90;999.90;;;15.50;99.90;;;;;;5069928;28;20473;-73
2022/09/30 09:52:35;;;;;;;1999.90;999.90;;;15.30;99.90;;;;;;5071890;28;20480;-74
2022/09/30 09:55:02;;;;;;;1999.90;999.90;;;15.00;99.90;;;;;;5065738;28;20452;-74
2022/09/30 09:57:31;;;;;;;1999.90;999.90;;;15.00;99.90;;;;;;5071930;28;20453;-74
2022/09/30 10:01:06;;;;;;;1999.90;999.90;;;15.20;99.90;;;;;;5069334;28;20500;-74
2022/09/30 10:03:00;;;;;;;1999.90;999.90;;;15.30;99.90;;;;;;5074471;28;20434;-74
2022/09/30 10:05:28;;;;;;;1999.90;999.90;;;15.40;99.90;;;;;;5070782;28;20476;-74
2022/09/30 10:08:10;;;;;;;1999.90;999.90;;;15.20;99.90;;;;;;5075267;28;20502;-74
2022/09/30 10:10:46;;;;;;;1999.90;999.90;;;15.00;99.90;;;;;;5071386;28;20445;-73
2022/09/30 10:13:17;;;;;;;1999.90;999.90;;;14.90;99.90;;;;;;5075315;28;20469;-74
2022/09/30 10:15:45;;;;;;;1999.90;999.90;;;14.80;99.90;;;;;;5071669;28;20441;-73
2022/09/30 10:18:20;;;;;;;1999.90;999.90;;;14.80;99.90;;;;;;5075397;28;20467;-73
2022/09/30 10:20:52;;;;;;;1999.90;999.90;;;14.80;99.90;;;;;;5072301;28;20478;-74
2022/09/30 10:23:21;;;;;;;1999.90;999.90;;;15.20;99.90;;;;;;5074763;28;20449;-71
2022/09/30 10:26:03;;;;;;;1999.90;999.90;;;15.40;99.90;;;;;;5066328;28;20476;-73
2022/09/30 10:28:32;;;;;;;1999.90;999.90;;;15.30;99.90;;;;;;5071076;28;20477;-74
2022/09/30 10:31:04;;;;;;;1999.90;999.90;;;15.60;99.90;;;;;;5072850;28;20500;-74
2022/09/30 10:33:40;;;;;;;1999.90;999.90;;;15.80;99.90;;;;;;5072528;28;20446;-74
2022/09/30 10:36:15;;;;;;;1999.90;999.90;;;15.70;99.90;;;;;;5071957;28;20476;-74
2022/09/30 10:38:57;;;;;;;1999.90;999.90;;;15.70;99.90;;;;;;5068777;28;20991;-74
2022/09/30 10:41:27;;;;;;;1999.90;999.90;;;15.70;99.90;;;;;;5071835;28;20846;-73
2022/09/30 10:43:56;;;;;;;1999.90;999.90;;;15.80;99.90;;;;;;5073302;28;20450;-74
2022/09/30 10:46:28;;;;;;;1999.90;999.90;;;15.80;99.90;;;;;;5071259;28;20480;-74
2022/09/30 10:48:57;;;;;;;1999.90;999.90;;;15.90;99.90;;;;;;5072406;28;20483;-73
2022/09/30 10:51:27;;;;;;;1999.90;999.90;;;15.80;99.90;;;;;;5069626;28;20458;-75
2022/09/30 10:53:55;;;;;;;1999.90;999.90;;;16.00;99.90;;;;;;5067956;28;20449;-74
2022/09/30 10:56:36;;;;;;;1999.90;999.90;;;16.40;99.90;;;;;;5071217;28;20465;-74
2022/09/30 10:59:05;;;;;;;1999.90;999.90;;;16.90;99.90;;;;;;5071156;28;20471;-74
2022/09/30 11:01:37;;;;;;;1999.90;999.90;;;17.10;99.90;;;;;;5074675;28;20930;-74
2022/09/30 11:04:08;;;;;;;1999.90;999.90;;;17.30;99.90;;;;;;5071790;28;20456;-74
2022/09/30 11:06:39;;;;;;;1999.90;999.90;;;17.40;99.90;;;;;;5070358;28;20481;-74
2022/09/30 11:09:11;;;;;;;1999.90;999.90;;;17.10;99.90;;;;;;5074661;28;20472;-75
2022/09/30 11:11:43;;;;;;;1999.90;999.90;;;17.40;99.00;;;;;;5070872;28;20468;-74
2022/09/30 11:14:26;;;;;;;1999.90;999.90;;;16.90;98.10;;;;;;5074602;28;20460;-74
2022/09/30 11:17:06;;;;;;;1999.90;999.90;;;17.20;97.60;;;;;;5069605;28;20465;-74
2022/09/30 11:19:38;;;;;;;1999.90;999.90;;;17.10;98.60;;;;;;5065525;28;20473;-73
2022/09/30 11:22:27;;;;;;;1999.90;999.90;;;17.70;98.30;;;;;;5072590;28;20480;-74
2022/09/30 11:24:56;;;;;;;1999.90;999.90;;;17.50;99.40;;;;;;5079697;28;20456;-74
2022/09/30 11:27:35;;;;;;;1999.90;999.90;;;17.70;98.00;;;;;;5078109;28;20618;-74
2022/09/30 11:30:09;;;;;;;1999.90;999.90;;;17.70;99.20;;;;;;5076742;28;20563;-74
2022/09/30 11:32:59;;;;;;;1999.90;999.90;;;17.80;97.70;;;;;;5073590;28;20819;-75
2022/09/30 11:35:40;;;;;;;1999.90;999.90;;;17.70;97.40;;;;;;5072083;28;20445;-75
2022/09/30 11:38:17;;;;;;;1999.90;999.90;;;17.50;98.70;;;;;;5071972;28;20464;-74
2022/09/30 11:40:54;;;;;;;1999.90;999.90;;;17.80;98.10;;;;;;5077638;28;20459;-76
2022/09/30 11:43:30;;;;;;;1999.90;999.90;;;17.50;97.30;;;;;;5075979;28;20460;-76
2022/09/30 11:46:19;;;;;;;1999.90;999.90;;;17.30;97.40;;;;;;5076858;28;20811;-76
2022/09/30 11:49:00;;;;;;;1999.90;999.90;;;17.00;98.20;;;;;;5072874;28;20490;-75
2022/09/30 11:51:36;;;;;;;1999.90;999.90;;;16.70;99.90;;;;;;5073565;28;20453;-73
2022/09/30 11:54:25;;;;;;;1999.90;999.90;;;16.60;99.90;;;;;;5070864;28;20457;-72
2022/09/30 11:56:56;;;;;;;1999.90;999.90;;;16.60;99.90;;;;;;5079044;28;20455;-73
2022/09/30 11:59:28;;;;;;;1999.90;999.90;;;16.90;99.90;;;;;;5074016;28;20488;-72
2022/09/30 12:02:01;;;;;;;1999.90;999.90;;;17.40;98.40;;;;;;5075205;28;20453;-75
2022/09/30 12:04:32;;;;;;;1999.90;999.90;;;17.20;98.10;;;;;;5068745;28;20542;-76
2022/09/30 12:07:05;;;;;;;1999.90;999.90;;;17.10;98.30;;;;;;5070974;28;20496;-74
2022/09/30 12:09:36;;;;;;;1999.90;999.90;;;17.00;99.20;;;;;;5074804;28;20505;-75
2022/09/30 12:12:08;;;;;;;1999.90;999.90;;;17.20;98.20;;;;;;5073932;28;20495;-75
2022/09/30 12:14:40;;;;;;;1999.90;999.90;;;16.80;97.70;;;;;;5072839;28;20464;-75
2022/09/30 12:17:18;;;;;;;1999.90;999.90;;;16.60;98.40;;;;;;5071808;28;20453;-75
2022/09/30 12:19:49;;;;;;;1999.90;999.90;;;16.60;99.90;;;;;;5077536;28;22033;-74
2022/09/30 12:22:21;;;;;;;1999.90;999.90;;;16.00;99.90;;;;;;5076406;28;20465;-75
2022/09/30 12:24:48;;;;;;;1999.90;999.90;;;16.20;99.90;;;;;;5074193;28;20460;-71
2022/09/30 12:27:20;;;;;;;1999.90;999.90;;;16.60;99.40;;;;;;5074953;28;20485;-74